Time;durP1;ratioP1;P1;durP2;ratioP2;P2;SDS_P1;SDS_P2;PMS_P1;PMS_P2;Temp;Humidity;BMP_temperature;BMP_pressure;BME280_temperature;BME280_humidity;BME280_pressure;Samples;Min_cycle;Max_cycle;Signal;HPM_P1;HPM_P2
2024/04/07 00:01:44;;;;;;;;;;;;;;;13.61;100.00;100796.15;106417;1257;62158;-86
2024/04/07 00:04:12;;;;;;;;;;;;;;;13.66;100.00;100798.90;106470;1254;61973;-85
2024/04/07 00:06:40;;;;;;;;;;;;;;;13.57;100.00;100797.73;106465;1252;75537;-85
2024/04/07 00:09:07;;;;;;;;;;;;;;;13.51;100.00;100805.77;106465;1251;69258;-85
2024/04/07 00:11:35;;;;;;;;;;;;;;;13.49;100.00;100802.42;106390;1253;74836;-86
2024/04/07 00:14:02;;;;;;;;;;;;;;;13.45;100.00;100801.98;107470;1253;60589;-86
2024/04/07 00:16:30;;;;;;;;;;;;;;;13.32;100.00;100803.91;106738;1253;62057;-85
2024/04/07 00:18:58;;;;;;;;;;;;;;;13.26;100.00;100804.23;106831;1253;74197;-86
2024/04/07 00:21:27;;;;;;;;;;;;;;;13.18;100.00;100804.40;106435;1256;67411;-86
2024/04/07 00:23:54;;;;;;;;;;;;;;;13.15;100.00;100806.29;106367;1254;71448;-86
2024/04/07 00:26:22;;;;;;;;;;;;;;;13.15;100.00;100802.67;106412;1254;61977;-86
2024/04/07 00:28:49;;;;;;;;;;;;;;;13.06;100.00;100814.70;106735;1254;62153;-86
2024/04/07 00:31:17;;;;;;;;;;;;;;;12.95;100.00;100813.15;106388;1254;74216;-86
2024/04/07 00:33:44;;;;;;;;;;;;;;;12.85;100.00;100814.60;106481;1254;68984;-86
2024/04/07 00:36:12;;;;;;;;;;;;;;;12.78;100.00;100820.40;106331;1254;72527;-85
2024/04/07 00:38:39;;;;;;;;;;;;;;;12.69;100.00;100818.39;106404;1254;62203;-86
2024/04/07 00:41:07;;;;;;;;;;;;;;;12.59;100.00;100816.69;106440;1254;62082;-86
2024/04/07 00:43:36;;;;;;;;;;;;;;;12.51;100.00;100821.13;106377;1254;73433;-85
2024/04/07 00:46:03;;;;;;;;;;;;;;;12.46;100.00;100825.98;106322;1251;68890;-85
2024/04/07 00:48:32;;;;;;;;;;;;;;;12.38;100.00;100833.98;107134;1254;72782;-86
2024/04/07 00:51:00;;;;;;;;;;;;;;;12.33;100.00;100829.61;106527;1256;61999;-85
2024/04/07 00:53:27;;;;;;;;;;;;;;;12.27;100.00;100829.80;106410;1254;62024;-85
2024/04/07 00:55:55;;;;;;;;;;;;;;;12.21;100.00;100828.73;98872;1258;10245726;-86
2024/04/07 00:58:22;;;;;;;;;;;;;;;12.13;100.00;100828.99;106562;1254;62050;-84
2024/04/07 01:00:50;;;;;;;;;;;;;;;12.03;100.00;100828.75;106456;1254;62210;-85
2024/04/07 01:03:17;;;;;;;;;;;;;;;11.94;100.00;100836.19;106223;1254;75520;-86
2024/04/07 01:05:45;;;;;;;;;;;;;;;11.90;100.00;100842.06;106277;1252;68862;-86
2024/04/07 01:08:13;;;;;;;;;;;;;;;11.84;100.00;100843.47;106829;1254;71460;-87
2024/04/07 01:10:41;;;;;;;;;;;;;;;11.76;100.00;100848.80;106594;1257;62159;-86
2024/04/07 01:13:09;;;;;;;;;;;;;;;11.68;100.00;100845.38;106450;1254;62182;-85
2024/04/07 01:15:37;;;;;;;;;;;;;;;11.59;100.00;100850.04;106471;1258;75525;-85
2024/04/07 01:18:04;;;;;;;;;;;;;;;11.51;100.00;100853.72;106545;1253;67289;-85
2024/04/07 01:20:32;;;;;;;;;;;;;;;11.41;100.00;100855.92;106592;1253;72739;-85
2024/04/07 01:23:00;;;;;;;;;;;;;;;11.33;100.00;100858.87;106467;1254;62307;-85
2024/04/07 01:25:28;;;;;;;;;;;;;;;11.24;100.00;100855.81;106366;1259;62057;-85
2024/04/07 01:27:56;;;;;;;;;;;;;;;11.17;100.00;100862.00;106319;1257;76036;-84
2024/04/07 01:30:23;;;;;;;;;;;;;;;11.10;100.00;100864.19;106180;1254;68590;-85
2024/04/07 01:32:51;;;;;;;;;;;;;;;11.06;100.00;100868.50;106945;1253;71446;-86
2024/04/07 01:35:19;;;;;;;;;;;;;;;10.99;100.00;100873.03;106609;1253;62151;-85
2024/04/07 01:37:46;;;;;;;;;;;;;;;10.97;100.00;100878.66;106478;1254;61982;-84
2024/04/07 01:40:13;;;;;;;;;;;;;;;10.95;100.00;100881.13;106438;1253;75460;-86
2024/04/07 01:42:41;;;;;;;;;;;;;;;10.94;100.00;100893.98;106436;1257;68627;-86
2024/04/07 01:45:09;;;;;;;;;;;;;;;10.95;100.00;100895.77;106610;1254;72719;-85
2024/04/07 01:47:36;;;;;;;;;;;;;;;10.99;100.00;100902.67;106433;1254;62298;-85
2024/04/07 01:50:04;;;;;;;;;;;;;;;11.00;100.00;100905.19;106342;1254;62059;-84
2024/04/07 01:52:32;;;;;;;;;;;;;;;11.07;100.00;100910.14;106431;1258;75530;-84
2024/04/07 01:54:59;;;;;;;;;;;;;;;11.10;100.00;100912.27;106685;1253;71371;-86
2024/04/07 01:57:27;;;;;;;;;;;;;;;11.12;100.00;100909.59;106472;1254;72951;-85
2024/04/07 01:59:55;;;;;;;;;;;;;;;11.18;100.00;100909.70;107069;1254;62111;-85
2024/04/07 02:02:22;;;;;;;;;;;;;;;11.29;100.00;100916.55;107211;1256;61912;-84
2024/04/07 02:04:50;;;;;;;;;;;;;;;11.43;100.00;100920.45;106469;1253;74239;-85
2024/04/07 02:07:19;;;;;;;;;;;;;;;11.50;100.00;100925.75;106441;1259;67354;-85
2024/04/07 02:09:47;;;;;;;;;;;;;;;11.60;100.00;100929.14;106453;1253;71531;-86
2024/04/07 02:12:15;;;;;;;;;;;;;;;11.73;100.00;100930.23;106549;1254;62713;-86
2024/04/07 02:14:43;;;;;;;;;;;;;;;11.87;100.00;100936.30;106469;1253;62162;-85
2024/04/07 02:17:13;;;;;;;;;;;;;;;12.00;100.00;100937.39;106098;1253;73553;-86
2024/04/07 02:19:41;;;;;;;;;;;;;;;12.13;100.00;100948.27;106742;1257;67441;-86
2024/04/07 02:22:09;;;;;;;;;;;;;;;12.23;100.00;100949.39;106407;1252;73027;-86
2024/04/07 02:24:36;;;;;;;;;;;;;;;12.34;100.00;100952.54;106418;1254;62018;-85
2024/04/07 02:27:04;;;;;;;;;;;;;;;12.44;100.00;100957.81;106543;1256;62015;-85
2024/04/07 02:29:33;;;;;;;;;;;;;;;12.50;100.00;100958.67;106480;1253;75685;-85
2024/04/07 02:32:01;;;;;;;;;;;;;;;12.59;100.00;100960.57;106264;1259;68519;-86
2024/04/07 02:34:28;;;;;;;;;;;;;;;12.66;100.00;100962.84;106351;1253;71468;-85
2024/04/07 02:36:56;;;;;;;;;;;;;;;12.72;100.00;100963.63;106313;1254;62156;-85
2024/04/07 02:39:23;;;;;;;;;;;;;;;12.76;100.00;100966.89;106452;1252;62018;-86
2024/04/07 02:41:51;;;;;;;;;;;;;;;12.80;100.00;100969.80;106704;1254;75451;-86
2024/04/07 02:48:03;;;;;;;;;;;;;;;12.82;100.00;100969.73;106359;1254;68881;-86
2024/04/07 02:49:52;;;;;;;;;;;;;;;12.82;100.00;100969.52;106285;1254;62060;-86
2024/04/07 02:52:19;;;;;;;;;;;;;;;12.80;100.00;100977.75;106286;1254;62398;-85
2024/04/07 02:54:47;;;;;;;;;;;;;;;12.82;100.00;100981.41;106438;1256;74692;-84
2024/04/07 02:57:14;;;;;;;;;;;;;;;12.83;100.00;100977.73;106447;1254;68628;-85
2024/04/07 02:59:42;;;;;;;;;;;;;;;12.83;100.00;100977.24;107434;1254;71131;-85
2024/04/07 03:02:09;;;;;;;;;;;;;;;12.82;100.00;100975.77;106306;1254;62076;-84
2024/04/07 03:04:38;;;;;;;;;;;;;;;12.83;100.00;100972.68;106376;1254;62262;-86
2024/04/07 03:07:05;;;;;;;;;;;;;;;12.84;100.00;100970.38;106459;1252;75622;-86
2024/04/07 03:09:33;;;;;;;;;;;;;;;12.84;100.00;100968.02;106274;1257;67650;-84
2024/04/07 03:12:00;;;;;;;;;;;;;;;12.84;100.00;100971.25;106303;1254;72873;-84
2024/04/07 03:14:27;;;;;;;;;;;;;;;12.83;100.00;100971.05;106712;1253;62040;-84
2024/04/07 03:16:55;;;;;;;;;;;;;;;12.81;100.00;100972.09;106305;1257;62347;-85
2024/04/07 03:19:26;;;;;;;;;;;;;;;12.80;100.00;100973.52;106483;1254;74231;-85
2024/04/07 03:21:53;;;;;;;;;;;;;;;12.72;100.00;100973.11;106649;1254;68594;-85
2024/04/07 03:24:20;;;;;;;;;;;;;;;12.65;100.00;100982.52;106269;1254;72718;-86
2024/04/07 03:26:48;;;;;;;;;;;;;;;12.57;100.00;100979.60;106442;1254;62048;-86
2024/04/07 03:29:15;;;;;;;;;;;;;;;12.50;100.00;100977.27;106308;1253;62071;-84
2024/04/07 03:31:43;;;;;;;;;;;;;;;12.41;100.00;100980.48;107734;1254;74207;-86
2024/04/07 03:34:10;;;;;;;;;;;;;;;12.31;100.00;100985.88;106512;1254;67530;-85
2024/04/07 03:36:38;;;;;;;;;;;;;;;12.23;100.00;100983.64;106408;1256;73089;-86
2024/04/07 03:39:07;;;;;;;;;;;;;;;12.20;100.00;100983.31;106730;1254;62239;-83
2024/04/07 03:41:35;;;;;;;;;;;;;;;12.13;100.00;100986.57;106498;1252;62743;-83
2024/04/07 03:44:02;;;;;;;;;;;;;;;12.04;100.00;100994.64;106414;1253;75521;-85
2024/04/07 03:46:30;;;;;;;;;;;;;;;12.01;100.00;101005.43;106308;1254;69250;-84
2024/04/07 03:48:57;;;;;;;;;;;;;;;11.98;100.00;101005.71;106893;1254;71195;-85
2024/04/07 03:51:25;;;;;;;;;;;;;;;11.94;100.00;101009.60;106442;1254;62268;-83
2024/04/07 03:53:52;;;;;;;;;;;;;;;11.90;100.00;101016.61;106396;1254;62021;-83
2024/04/07 03:56:20;;;;;;;;;;;;;;;11.90;100.00;101023.52;106430;1254;75495;-85
2024/04/07 03:58:47;;;;;;;;;;;;;;;11.94;100.00;101030.52;106543;1253;69271;-85
2024/04/07 04:01:15;;;;;;;;;;;;;;;11.97;100.00;101030.91;106441;1254;72454;-84
2024/04/07 04:03:42;;;;;;;;;;;;;;;11.98;100.00;101028.44;106363;1254;62129;-85
2024/04/07 04:06:10;;;;;;;;;;;;;;;12.05;100.00;101030.41;106395;1254;62213;-85
2024/04/07 04:08:38;;;;;;;;;;;;;;;12.13;100.00;101030.06;107367;1256;75499;-85
2024/04/07 04:11:06;;;;;;;;;;;;;;;12.19;100.00;101033.17;106476;1253;68593;-84
2024/04/07 04:13:37;;;;;;;;;;;;;;;12.26;100.00;101041.33;106433;1254;71774;-85
2024/04/07 04:16:07;;;;;;;;;;;;;;;12.36;100.00;101044.40;106497;1253;62036;-85
2024/04/07 04:18:34;;;;;;;;;;;;;;;12.40;100.00;101039.63;106474;1258;62107;-84
2024/04/07 04:21:02;;;;;;;;;;;;;;;12.49;100.00;101039.48;106324;1253;74235;-85
2024/04/07 04:23:29;;;;;;;;;;;;;;;12.52;100.00;101039.81;106249;1256;67369;-84
2024/04/07 04:25:57;;;;;;;;;;;;;;;12.54;100.00;101042.16;106333;1254;71445;-84
2024/04/07 04:28:25;;;;;;;;;;;;;;;12.56;100.00;101047.98;107410;1253;62033;-84
2024/04/07 04:30:52;;;;;;;;;;;;;;;12.57;100.00;101053.72;106505;1256;62158;-84
2024/04/07 04:33:20;;;;;;;;;;;;;;;12.62;100.00;101060.45;106547;1258;75554;-85
2024/04/07 04:35:49;;;;;;;;;;;;;;;12.66;100.00;101063.24;106536;1255;71040;-85
2024/04/07 04:38:16;;;;;;;;;;;;;;;12.73;100.00;101063.33;106640;1253;72679;-84
2024/04/07 04:40:54;;;;;;;;;;;;;;;12.82;100.00;101065.56;106305;1253;62922;-84
2024/04/07 04:43:22;;;;;;;;;;;;;;;12.95;100.00;101062.76;106391;1254;62063;-86
2024/04/07 04:46:03;;;;;;;;;;;;;;;13.06;100.00;101063.33;106889;1253;74247;-85
2024/04/07 04:48:31;;;;;;;;;;;;;;;13.19;100.00;101060.14;106342;1252;69042;-84
2024/04/07 04:50:59;;;;;;;;;;;;;;;13.29;100.00;101060.38;106376;1257;71913;-84
2024/04/07 04:53:29;;;;;;;;;;;;;;;13.40;100.00;101063.34;106454;1257;62108;-84
2024/04/07 04:56:01;;;;;;;;;;;;;;;13.50;100.00;101068.78;106254;1254;62139;-87
2024/04/07 04:58:30;;;;;;;;;;;;;;;13.61;100.00;101075.23;106534;1254;75865;-85
2024/04/07 05:00:57;;;;;;;;;;;;;;;13.74;100.00;101076.25;106543;1254;68958;-86
2024/04/07 05:03:25;;;;;;;;;;;;;;;13.87;100.00;101076.66;106383;1254;70364;-84
2024/04/07 05:05:53;;;;;;;;;;;;;;;13.96;100.00;101079.61;106340;1252;62008;-83
2024/04/07 05:08:20;;;;;;;;;;;;;;;14.09;100.00;101078.69;106493;1253;62659;-86
2024/04/07 05:10:48;;;;;;;;;;;;;;;14.19;100.00;101080.73;106383;1256;75508;-86
2024/04/07 05:13:15;;;;;;;;;;;;;;;14.28;100.00;101078.34;106286;1257;67329;-86
2024/04/07 05:15:49;;;;;;;;;;;;;;;14.40;100.00;101078.80;106338;1254;72345;-86
2024/04/07 05:18:18;;;;;;;;;;;;;;;14.52;100.00;101080.95;106420;1253;62037;-84
2024/04/07 05:20:45;;;;;;;;;;;;;;;14.66;100.00;101086.02;106782;1253;62165;-84
2024/04/07 05:23:14;;;;;;;;;;;;;;;14.78;100.00;101088.45;106303;1254;76363;-83
2024/04/07 05:25:41;;;;;;;;;;;;;;;14.90;100.00;101084.24;106510;1254;68624;-83
2024/04/07 05:28:11;;;;;;;;;;;;;;;15.01;100.00;101090.59;106584;1254;74873;-83
2024/04/07 05:30:38;;;;;;;;;;;;;;;15.07;100.00;101095.09;106441;1254;62188;-83
2024/04/07 05:33:06;;;;;;;;;;;;;;;15.16;100.00;101099.11;106421;1252;62054;-85
2024/04/07 05:35:33;;;;;;;;;;;;;;;15.27;100.00;101100.46;107173;1254;75935;-84
2024/04/07 05:38:01;;;;;;;;;;;;;;;15.36;100.00;101112.58;107004;1254;67789;-84
2024/04/07 05:40:29;;;;;;;;;;;;;;;15.42;100.00;101118.73;109146;1252;74503;-88
2024/04/07 05:42:56;;;;;;;;;;;;;;;15.49;100.00;101129.02;107451;1258;61922;-83
2024/04/07 05:45:23;;;;;;;;;;;;;;;15.53;100.00;101138.46;106389;1257;61046;-83
2024/04/07 05:47:51;;;;;;;;;;;;;;;15.57;100.00;101141.88;106484;1256;75402;-83
2024/04/07 05:50:19;;;;;;;;;;;;;;;15.61;100.00;101149.33;106787;1252;68980;-84
2024/04/07 05:52:46;;;;;;;;;;;;;;;15.57;100.00;101156.18;106691;1254;73403;-84
2024/04/07 05:55:14;;;;;;;;;;;;;;;15.59;100.00;101161.41;106405;1254;62158;-87
2024/04/07 05:57:41;;;;;;;;;;;;;;;15.63;100.00;101166.86;106413;1254;60073;-88
2024/04/07 06:00:09;;;;;;;;;;;;;;;15.69;100.00;101175.17;106254;1254;76065;-87
2024/04/07 06:02:39;;;;;;;;;;;;;;;15.76;100.00;101179.89;106341;1258;68524;-88
2024/04/07 06:05:07;;;;;;;;;;;;;;;15.85;100.00;101183.84;107864;1254;72709;-86
2024/04/07 06:07:34;;;;;;;;;;;;;;;15.82;100.00;101187.91;106435;1254;62168;-86
2024/04/07 06:10:02;;;;;;;;;;;;;;;15.79;100.00;101195.34;106500;1254;62075;-86
2024/04/07 06:12:30;;;;;;;;;;;;;;;15.85;100.00;101198.40;106431;1258;77399;-85
2024/04/07 06:14:58;;;;;;;;;;;;;;;15.98;100.00;101201.96;106436;1254;67232;-85
2024/04/07 06:17:25;;;;;;;;;;;;;;;16.11;100.00;101206.52;106210;1253;71156;-87
2024/04/07 06:19:53;;;;;;;;;;;;;;;16.26;100.00;101202.14;106198;1258;62063;-87
2024/04/07 06:22:21;;;;;;;;;;;;;;;16.46;100.00;101207.25;106831;1257;62060;-87
2024/04/07 06:24:48;;;;;;;;;;;;;;;16.65;100.00;101212.45;107275;1255;73431;-87
2024/04/07 06:27:16;;;;;;;;;;;;;;;16.82;100.00;101212.09;106550;1254;68485;-88
2024/04/07 06:29:43;;;;;;;;;;;;;;;16.83;100.00;101211.42;106603;1254;71216;-86
2024/04/07 06:32:11;;;;;;;;;;;;;;;16.90;100.00;101213.82;106694;1257;62045;-87
2024/04/07 06:34:39;;;;;;;;;;;;;;;16.96;100.00;101215.44;106713;1252;62177;-84
2024/04/07 06:37:06;;;;;;;;;;;;;;;16.97;100.00;101222.42;106859;1254;75959;-85
2024/04/07 06:39:34;;;;;;;;;;;;;;;16.95;100.00;101222.69;106665;1258;67424;-85
2024/04/07 06:42:04;;;;;;;;;;;;;;;16.84;100.00;101231.27;106531;1254;70295;-86
2024/04/07 06:44:32;;;;;;;;;;;;;;;16.68;100.00;101236.79;106609;1254;62034;-84
2024/04/07 06:47:01;;;;;;;;;;;;;;;16.51;100.00;101242.81;106413;1253;60019;-84
2024/04/07 06:49:28;;;;;;;;;;;;;;;16.34;100.00;101249.70;106266;1252;73901;-87
2024/04/07 06:51:56;;;;;;;;;;;;;;;16.15;100.00;101260.44;108630;1255;67846;-85
2024/04/07 06:54:23;;;;;;;;;;;;;;;15.94;100.00;101266.79;107956;1256;72399;-85
2024/04/07 06:56:50;;;;;;;;;;;;;;;15.77;100.00;101267.71;106793;1258;62777;-86
2024/04/07 06:59:18;;;;;;;;;;;;;;;15.71;100.00;101270.44;106797;1254;62216;-86
2024/04/07 07:01:45;;;;;;;;;;;;;;;15.64;100.00;101272.81;106702;1256;75423;-85
2024/04/07 07:04:13;;;;;;;;;;;;;;;15.60;100.00;101273.30;106427;1253;66887;-85
2024/04/07 07:06:42;;;;;;;;;;;;;;;15.60;100.00;101271.03;106268;1254;71456;-84
2024/04/07 07:09:09;;;;;;;;;;;;;;;15.66;100.00;101267.82;106493;1253;62822;-85
2024/04/07 07:11:37;;;;;;;;;;;;;;;15.67;100.00;101272.45;106369;1258;62050;-85
2024/04/07 07:14:05;;;;;;;;;;;;;;;15.73;100.00;101274.77;106485;1254;75524;-84
2024/04/07 07:16:32;;;;;;;;;;;;;;;15.84;100.00;101276.44;107577;1254;67219;-86
2024/04/07 07:19:06;;;;;;;;;;;;;;;15.94;100.00;101278.24;106229;1256;72335;-85
2024/04/07 07:21:33;;;;;;;;;;;;;;;16.01;100.00;101280.59;106592;1254;62162;-86
2024/04/07 07:24:01;;;;;;;;;;;;;;;16.03;100.00;101283.48;106888;1254;62146;-86
2024/04/07 07:26:28;;;;;;;;;;;;;;;16.15;100.00;101281.84;106785;1254;75522;-87
2024/04/07 07:28:57;;;;;;;;;;;;;;;16.25;100.00;101286.73;106611;1254;68788;-86
2024/04/07 07:31:25;;;;;;;;;;;;;;;16.33;100.00;101289.85;106439;1254;71959;-87
2024/04/07 07:33:52;;;;;;;;;;;;;;;16.30;100.00;101297.79;106619;1254;62078;-86
2024/04/07 07:36:20;;;;;;;;;;;;;;;16.21;100.00;101299.40;106524;1259;62303;-86
2024/04/07 07:38:51;;;;;;;;;;;;;;;16.18;100.00;101311.19;106733;1254;74636;-86
2024/04/07 07:41:18;;;;;;;;;;;;;;;16.19;100.00;101316.92;106252;1254;68578;-87
2024/04/07 07:43:46;;;;;;;;;;;;;;;16.18;100.00;101323.21;106443;1256;71470;-87
2024/04/07 07:46:13;;;;;;;;;;;;;;;16.27;100.00;101331.96;106381;1259;62111;-86
2024/04/07 07:48:41;;;;;;;;;;;;;;;16.40;100.00;101334.17;106463;1256;62041;-87
2024/04/07 07:51:09;;;;;;;;;;;;;;;16.32;100.00;101342.10;106640;1253;74238;-86
2024/04/07 07:53:37;;;;;;;;;;;;;;;16.19;100.00;101339.91;107735;1258;68922;-86
2024/04/07 07:56:07;;;;;;;;;;;;;;;16.09;100.00;101344.89;106540;1254;72942;-86
2024/04/07 07:58:35;;;;;;;;;;;;;;;15.91;100.00;101354.27;106401;1254;62137;-86
2024/04/07 08:01:03;;;;;;;;;;;;;;;15.82;100.00;101360.05;106549;1254;62076;-86
2024/04/07 08:03:31;;;;;;;;;;;;;;;15.61;100.00;101363.86;106279;1254;75436;-86
2024/04/07 08:05:58;;;;;;;;;;;;;;;15.48;100.00;101361.11;106483;1257;67613;-86
2024/04/07 08:08:26;;;;;;;;;;;;;;;15.55;100.00;101363.25;106503;1253;72893;-86
2024/04/07 08:10:53;;;;;;;;;;;;;;;15.57;100.00;101369.45;106419;1259;62150;-85
2024/04/07 08:13:21;;;;;;;;;;;;;;;15.54;100.00;101373.17;106482;1259;62163;-86
2024/04/07 08:15:48;;;;;;;;;;;;;;;15.50;100.00;101379.60;106310;1254;74732;-85
2024/04/07 08:18:16;;;;;;;;;;;;;;;15.61;100.00;101381.33;106684;1253;68680;-86
2024/04/07 08:20:43;;;;;;;;;;;;;;;15.72;100.00;101380.64;106774;1253;72736;-86
2024/04/07 08:23:11;;;;;;;;;;;;;;;15.69;100.00;101383.46;106379;1253;62248;-87
2024/04/07 08:25:39;;;;;;;;;;;;;;;15.70;100.00;101384.89;106418;1253;62136;-87
2024/04/07 08:28:06;;;;;;;;;;;;;;;15.69;100.00;101387.16;107936;1259;74279;-87
2024/04/07 08:30:34;;;;;;;;;;;;;;;15.69;100.00;101391.73;107905;1254;67292;-88
2024/04/07 08:33:02;;;;;;;;;;;;;;;15.71;100.00;101395.25;106313;1257;72750;-87
2024/04/07 08:35:30;;;;;;;;;;;;;;;15.74;100.00;101392.25;107051;1254;62114;-87
2024/04/07 08:37:57;;;;;;;;;;;;;;;15.78;100.00;101395.89;106413;1253;62423;-86
2024/04/07 08:40:25;;;;;;;;;;;;;;;15.84;100.00;101393.29;107507;1259;75479;-87
2024/04/07 08:42:52;;;;;;;;;;;;;;;15.97;100.00;101387.60;106440;1253;67280;-87
2024/04/07 08:45:21;;;;;;;;;;;;;;;16.08;100.00;101387.14;106390;1254;72777;-86
2024/04/07 08:47:48;;;;;;;;;;;;;;;16.20;100.00;101384.30;107197;1253;62130;-87
2024/04/07 08:50:16;;;;;;;;;;;;;;;16.39;100.00;101385.33;108447;1253;61912;-87
2024/04/07 08:52:44;;;;;;;;;;;;;;;16.54;100.00;101392.84;106566;1259;74289;-86
2024/04/07 08:55:11;;;;;;;;;;;;;;;16.70;100.00;101395.49;107476;1254;68967;-87
2024/04/07 08:57:39;;;;;;;;;;;;;;;16.85;100.00;101388.59;106429;1258;72329;-85
2024/04/07 09:00:08;;;;;;;;;;;;;;;17.00;100.00;101391.92;107373;1254;60100;-86
2024/04/07 09:02:36;;;;;;;;;;;;;;;17.20;100.00;101391.84;106491;1259;61998;-85
2024/04/07 09:05:04;;;;;;;;;;;;;;;17.43;100.00;101392.71;106909;1254;75518;-84
2024/04/07 09:07:31;;;;;;;;;;;;;;;17.66;100.00;101389.61;107145;1254;67339;-86
2024/04/07 09:09:59;;;;;;;;;;;;;;;17.82;100.00;101382.97;106601;1258;71137;-86
2024/04/07 09:12:28;;;;;;;;;;;;;;;17.91;100.00;101381.48;106801;1254;62063;-87
2024/04/07 09:14:56;;;;;;;;;;;;;;;17.93;100.00;101385.15;107912;1253;62085;-86
2024/04/07 09:17:23;;;;;;;;;;;;;;;17.99;100.00;101383.60;106214;1259;74522;-87
2024/04/07 09:19:51;;;;;;;;;;;;;;;18.07;100.00;101388.52;106581;1258;67313;-88
2024/04/07 09:22:19;;;;;;;;;;;;;;;18.17;100.00;101393.15;106576;1255;72732;-87
2024/04/07 09:24:46;;;;;;;;;;;;;;;18.30;100.00;101392.09;106720;1258;62101;-86
2024/04/07 09:27:17;;;;;;;;;;;;;;;18.41;100.00;101386.78;107359;1253;62047;-86
2024/04/07 09:29:45;;;;;;;;;;;;;;;18.53;100.00;101390.13;106527;1252;77629;-87
2024/04/07 09:32:12;;;;;;;;;;;;;;;18.60;100.00;101386.73;106489;1253;68838;-88
2024/04/07 09:34:40;;;;;;;;;;;;;;;18.65;100.00;101391.35;106503;1253;71449;-88
2024/04/07 09:37:07;;;;;;;;;;;;;;;18.68;100.00;101393.59;106605;1257;62100;-88
2024/04/07 09:39:35;;;;;;;;;;;;;;;18.72;100.00;101399.10;106578;1256;62169;-86
2024/04/07 09:42:02;;;;;;;;;;;;;;;18.64;100.00;101399.34;106622;1253;75724;-87
2024/04/07 09:44:32;;;;;;;;;;;;;;;18.44;100.00;101402.38;107248;1256;67817;-87
2024/04/07 09:47:06;;;;;;;;;;;;;;;18.15;100.00;101400.70;106524;1254;72816;-86
2024/04/07 09:49:35;;;;;;;;;;;;;;;17.98;100.00;101401.81;106558;1254;61992;-87
2024/04/07 09:52:04;;;;;;;;;;;;;;;17.88;100.00;101398.67;106573;1254;61945;-88
2024/04/07 09:54:31;;;;;;;;;;;;;;;17.77;100.00;101406.84;106406;1258;75857;-87
2024/04/07 09:56:59;;;;;;;;;;;;;;;17.71;100.00;101407.70;106422;1256;69668;-88
2024/04/07 09:59:27;;;;;;;;;;;;;;;17.74;100.00;101410.32;106458;1259;70625;-85
2024/04/07 10:01:54;;;;;;;;;;;;;;;17.90;100.00;101414.69;106301;1254;62114;-86
2024/04/07 10:04:24;;;;;;;;;;;;;;;18.07;100.00;101412.69;106448;1254;62066;-85
2024/04/07 10:06:52;;;;;;;;;;;;;;;18.27;100.00;101413.41;106381;1254;76628;-86
2024/04/07 10:09:20;;;;;;;;;;;;;;;18.39;100.00;101410.49;106442;1254;68551;-85
2024/04/07 10:11:48;;;;;;;;;;;;;;;18.57;100.00;101408.80;106542;1254;71144;-86
2024/04/07 10:14:15;;;;;;;;;;;;;;;18.80;100.00;101411.02;106389;1259;62182;-88
2024/04/07 10:16:43;;;;;;;;;;;;;;;19.01;100.00;101402.34;106410;1253;63471;-88
2024/04/07 10:19:11;;;;;;;;;;;;;;;19.13;100.00;101399.57;106542;1254;73437;-86
2024/04/07 10:21:39;;;;;;;;;;;;;;;19.14;100.00;101397.61;106361;1255;67282;-85
2024/04/07 10:24:07;;;;;;;;;;;;;;;19.13;100.00;101399.67;106583;1252;72709;-87
2024/04/07 10:26:35;;;;;;;;;;;;;;;19.18;100.00;101397.49;106425;1257;62549;-85
2024/04/07 10:29:06;;;;;;;;;;;;;;;19.16;100.00;101399.27;106600;1254;62139;-87
2024/04/07 10:31:34;;;;;;;;;;;;;;;19.19;100.00;101401.30;106619;1251;75461;-87
2024/04/07 10:34:02;;;;;;;;;;;;;;;19.12;100.00;101401.20;106588;1257;67529;-85
2024/04/07 10:36:33;;;;;;;;;;;;;;;19.15;100.00;101399.63;106444;1258;72759;-86
2024/04/07 10:39:02;;;;;;;;;;;;;;;19.24;100.00;101396.52;106459;1254;62037;-85
2024/04/07 10:41:33;;;;;;;;;;;;;;;19.34;100.00;101399.60;106294;1256;61967;-85
2024/04/07 10:44:01;;;;;;;;;;;;;;;19.43;100.00;101400.98;107306;1253;76023;-86
2024/04/07 10:46:30;;;;;;;;;;;;;;;19.46;100.00;101403.77;106499;1257;67558;-86
2024/04/07 10:48:58;;;;;;;;;;;;;;;19.48;100.00;101411.00;106605;1254;72809;-86
2024/04/07 10:51:26;;;;;;;;;;;;;;;19.58;100.00;101411.74;106542;1253;62056;-86
2024/04/07 10:53:58;;;;;;;;;;;;;;;19.57;99.70;101415.43;106563;1254;60855;-85
2024/04/07 10:56:26;;;;;;;;;;;;;;;19.51;99.99;101415.59;106415;1254;75599;-82
2024/04/07 10:58:53;;;;;;;;;;;;;;;19.34;100.00;101414.63;106667;1253;68812;-84
2024/04/07 11:01:21;;;;;;;;;;;;;;;19.25;100.00;101417.27;106901;1254;71095;-84
2024/04/07 11:03:48;;;;;;;;;;;;;;;19.21;100.00;101411.60;107517;1253;62168;-84
2024/04/07 11:06:16;;;;;;;;;;;;;;;19.21;100.00;101407.23;106812;1253;61977;-84
2024/04/07 11:08:43;;;;;;;;;;;;;;;19.23;100.00;101409.14;106809;1253;76001;-85
2024/04/07 11:11:11;;;;;;;;;;;;;;;19.36;100.00;101407.86;106795;1253;69113;-84
2024/04/07 11:13:39;;;;;;;;;;;;;;;19.60;100.00;101405.92;106890;1259;74912;-85
2024/04/07 11:16:09;;;;;;;;;;;;;;;19.84;99.92;101404.71;106739;1254;62120;-84
2024/04/07 11:18:37;;;;;;;;;;;;;;;20.04;99.94;101406.16;106576;1254;62111;-84
2024/04/07 11:21:04;;;;;;;;;;;;;;;20.01;97.63;101404.86;106656;1259;75481;-85
2024/04/07 11:23:35;;;;;;;;;;;;;;;19.89;97.43;101406.95;106595;1257;70776;-84
2024/04/07 11:26:12;;;;;;;;;;;;;;;19.72;97.58;101403.41;106406;1257;72975;-85
2024/04/07 11:28:40;;;;;;;;;;;;;;;19.58;99.42;101405.36;106603;1254;62365;-85
2024/04/07 11:31:08;;;;;;;;;;;;;;;19.54;99.24;101407.90;106628;1257;62062;-85
2024/04/07 11:33:35;;;;;;;;;;;;;;;19.60;97.93;101410.45;106583;1259;75584;-85
2024/04/07 11:36:03;;;;;;;;;;;;;;;19.63;95.00;101409.55;106434;1254;67608;-84
2024/04/07 11:38:31;;;;;;;;;;;;;;;19.60;91.82;101413.23;106595;1256;72764;-85
2024/04/07 11:40:59;;;;;;;;;;;;;;;19.61;93.52;101409.16;106895;1251;62082;-85
2024/04/07 11:43:26;;;;;;;;;;;;;;;19.71;95.39;101407.64;106432;1254;62189;-85
2024/04/07 11:45:54;;;;;;;;;;;;;;;19.81;93.84;101405.39;106583;1254;75532;-86
2024/04/07 11:48:22;;;;;;;;;;;;;;;19.92;91.87;101408.53;106483;1259;69142;-83
2024/04/07 11:50:49;;;;;;;;;;;;;;;20.02;90.82;101408.23;106518;1258;73026;-84
2024/04/07 11:53:17;;;;;;;;;;;;;;;20.09;87.62;101407.95;106529;1254;62131;-83
2024/04/07 11:55:44;;;;;;;;;;;;;;;20.19;84.69;101403.05;107058;1253;62082;-84
2024/04/07 11:58:11;;;;;;;;;;;;;;;20.44;82.79;101408.08;107433;1256;76416;-84
2024/04/07 12:00:39;;;;;;;;;;;;;;;20.70;72.44;101407.98;106507;1253;67309;-85
2024/04/07 12:03:08;;;;;;;;;;;;;;;20.86;71.48;101407.70;106436;1254;73191;-84
2024/04/07 12:05:36;;;;;;;;;;;;;;;21.07;67.81;101410.08;106425;1259;62159;-83
2024/04/07 12:08:04;;;;;;;;;;;;;;;21.22;65.09;101413.77;106565;1253;62101;-84
2024/04/07 12:10:31;;;;;;;;;;;;;;;21.32;62.32;101410.00;106412;1253;74338;-83
2024/04/07 12:12:59;;;;;;;;;;;;;;;21.44;61.60;101410.89;106487;1258;67212;-84
2024/04/07 12:15:26;;;;;;;;;;;;;;;21.58;59.67;101409.66;106531;1254;73305;-84
2024/04/07 12:17:54;;;;;;;;;;;;;;;21.67;61.60;101407.14;106537;1256;62032;-84
2024/04/07 12:20:22;;;;;;;;;;;;;;;21.81;61.68;101406.12;106918;1259;62145;-84
2024/04/07 12:22:49;;;;;;;;;;;;;;;21.93;58.06;101411.73;106508;1254;75460;-84
2024/04/07 12:25:17;;;;;;;;;;;;;;;22.06;55.93;101402.81;106429;1254;69765;-84